Time,TemperatureF,DewpointF,PressureIn,WindDirection,WindDirectionDegrees,WindSpeedMPH,WindSpeedGustMPH,Humidity,HourlyPrecipIn,Conditions,Clouds,dailyrainin,SoftwareType,DateUTC
2013-05-01 00:01:00,56.4,52.9,29.93,South,183,4.0,5.0,88,0.00,,,0.00,Wunderground v.1.13,2013-05-01 07:01:00,
2013-05-01 00:11:00,56.5,53.0,29.94,South,183,5.0,6.0,88,0.00,,,0.00,Wunderground v.1.13,2013-05-01 07:11:00,
2013-05-01 00:21:00,56.6,53.1,29.94,South,183,4.0,4.0,88,0.00,,,0.00,Wunderground v.1.13,2013-05-01 07:21:00,
2013-05-01 00:26:00,56.6,53.1,29.94,South,184,4.0,4.0,88,0.00,,,0.00,Wunderground v.1.13,2013-05-01 07:26:00,
2013-05-01 00:36:00,56.7,53.2,29.94,South,184,3.0,3.0,88,0.00,,,0.00,Wunderground v.1.13,2013-05-01 07:36:00,
2013-05-01 00:41:00,56.7,53.2,29.94,South,185,3.0,4.0,88,0.00,,,0.00,Wunderground v.1.13,2013-05-01 07:41:00,
2013-05-01 00:51:00,57.0,53.5,29.94,South,184,3.0,3.0,88,0.00,,,0.00,Wunderground v.1.13,2013-05-01 07:51:00,
2013-05-01 01:01:00,57.2,53.7,29.94,South,184,1.0,2.0,88,0.00,,,0.00,Wunderground v.1.13,2013-05-01 08:01:00,
2013-05-01 01:11:00,57.4,53.6,29.95,South,185,2.0,2.0,87,0.00,,,0.00,Wunderground v.1.13,2013-05-01 08:11:00,
2013-05-01 01:21:00,57.5,53.7,29.95,South,184,1.0,1.0,87,0.00,,,0.00,Wunderground v.1.13,2013-05-01 08:21:00,
2013-05-01 01:26:00,57.6,53.8,29.95,South,184,0.0,0.0,87,0.00,,,0.00,Wunderground v.1.13,2013-05-01 08:26:00,
2013-05-01 01:36:00,57.8,54.0,29.95,South,184,0.0,0.0,87,0.00,,,0.00,Wunderground v.1.13,2013-05-01 08:36:00,
2013-05-01 01:41:00,57.9,54.1,29.95,South,184,0.0,4.0,87,0.00,,,0.00,Wunderground v.1.13,2013-05-01 08:41:00,
2013-05-01 01:51:00,58.1,54.2,29.95,South,183,1.0,2.0,87,0.00,,,0.00,Wunderground v.1.13,2013-05-01 08:51:00,
2013-05-01 01:56:00,58.2,54.3,29.95,South,183,1.0,1.0,87,0.00,,,0.00,Wunderground v.1.13,2013-05-01 08:56:00,
2013-05-01 02:06:00,58.4,54.5,29.95,South,183,0.0,0.0,87,0.00,,,0.00,Wunderground v.1.13,2013-05-01 09:06:00,
2013-05-01 02:16:00,58.6,54.7,29.95,South,183,0.0,0.0,87,0.00,,,0.00,Wunderground v.1.13,2013-05-01 09:16:00,
2013-05-01 02:21:00,58.7,54.8,29.96,South,183,0.0,0.0,87,0.00,,,0.00,Wunderground v.1.13,2013-05-01 09:21:00,
2013-05-01 02:31:00,58.7,54.5,29.96,South,182,0.0,0.0,86,0.00,,,0.00,Wunderground v.1.13,2013-05-01 09:31:00,
2013-05-01 02:41:00,58.7,54.5,29.96,South,182,0.0,0.0,86,0.00,,,0.00,Wunderground v.1.13,2013-05-01 09:41:00,
2013-05-01 02:46:00,58.7,54.5,29.96,South,182,0.0,0.0,86,0.00,,,0.00,Wunderground v.1.13,2013-05-01 09:46:00,
2013-05-01 02:56:00,58.8,54.6,29.96,South,182,0.0,0.0,86,0.00,,,0.00,Wunderground v.1.13,2013-05-01 09:56:00,
2013-05-01 03:01:00,58.8,54.6,29.96,South,182,0.0,0.0,86,0.00,,,0.00,Wunderground v.1.13,2013-05-01 10:01:00,
2013-05-01 03:11:00,58.9,54.7,29.96,South,182,0.0,0.0,86,0.00,,,0.00,Wunderground v.1.13,2013-05-01 10:11:00,
2013-05-01 03:21:00,58.9,54.4,29.96,South,182,0.0,0.0,85,0.00,,,0.00,Wunderground v.1.13,2013-05-01 10:21:00,
2013-05-01 03:26:00,58.9,54.4,29.96,South,182,0.0,0.0,85,0.00,,,0.00,Wunderground v.1.13,2013-05-01 10:26:00,
2013-05-01 03:31:00,58.9,54.4,29.95,South,182,0.0,0.0,85,0.00,,,0.00,Wunderground v.1.13,2013-05-01 10:31:00,
2013-05-01 03:41:00,58.9,54.4,29.95,South,182,0.0,0.0,85,0.00,,,0.00,Wunderground v.1.13,2013-05-01 10:41:00,
2013-05-01 03:46:00,58.9,54.4,29.95,South,182,0.0,0.0,85,0.00,,,0.00,Wunderground v.1.13,2013-05-01 10:46:00,
2013-05-01 03:56:00,59.0,54.5,29.95,South,182,0.0,0.0,85,0.00,,,0.00,Wunderground v.1.13,2013-05-01 10:56:00,
2013-05-01 04:01:00,59.0,54.5,29.96,South,182,0.0,0.0,85,0.00,,,0.00,Wunderground v.1.13,2013-05-01 11:01:00,
2013-05-01 04:06:00,59.0,54.5,29.96,South,182,0.0,0.0,85,0.00,,,0.00,Wunderground v.1.13,2013-05-01 11:06:00,
2013-05-01 04:11:00,59.0,54.5,29.96,South,182,0.0,0.0,85,0.00,,,0.00,Wunderground v.1.13,2013-05-01 11:11:00,
2013-05-01 04:21:00,59.1,54.6,29.95,South,182,0.0,0.0,85,0.00,,,0.00,Wunderground v.1.13,2013-05-01 11:21:00,
2013-05-01 04:26:00,59.1,54.6,29.95,South,182,0.0,0.0,85,0.00,,,0.00,Wunderground v.1.13,2013-05-01 11:26:00,
2013-05-01 04:31:00,59.2,54.7,29.96,South,182,0.0,0.0,85,0.00,,,0.00,Wunderground v.1.13,2013-05-01 11:31:00,
2013-05-01 04:36:00,59.2,54.7,29.96,South,182,0.0,0.0,85,0.00,,,0.00,Wunderground v.1.13,2013-05-01 11:36:00,
2013-05-01 04:46:00,59.2,54.7,29.96,South,182,0.0,0.0,85,0.00,,,0.00,Wunderground v.1.13,2013-05-01 11:46:00,
2013-05-01 04:51:00,59.2,54.7,29.96,South,182,0.0,0.0,85,0.00,,,0.00,Wunderground v.1.13,2013-05-01 11:51:00,
2013-05-01 04:56:00,59.2,54.7,29.96,South,182,0.0,0.0,85,0.00,,,0.00,Wunderground v.1.13,2013-05-01 11:56:00,
2013-05-01 05:01:00,59.3,54.8,29.96,South,182,0.0,0.0,85,0.00,,,0.00,Wunderground v.1.13,2013-05-01 12:01:00,
2013-05-01 05:11:00,59.2,54.7,29.96,South,182,0.0,0.0,85,0.00,,,0.00,Wunderground v.1.13,2013-05-01 12:11:00,
2013-05-01 05:16:00,59.3,54.8,29.96,South,182,0.0,0.0,85,0.00,,,0.00,Wunderground v.1.13,2013-05-01 12:16:00,
2013-05-01 05:21:00,59.3,54.8,29.96,South,182,0.0,0.0,85,0.00,,,0.00,Wunderground v.1.13,2013-05-01 12:21:00,
2013-05-01 05:31:00,59.3,54.8,29.97,South,182,0.0,0.0,85,0.00,,,0.00,Wunderground v.1.13,2013-05-01 12:31:00,
2013-05-01 05:36:00,59.4,54.9,29.97,South,182,0.0,0.0,85,0.00,,,0.00,Wunderground v.1.13,2013-05-01 12:36:00,
2013-05-01 05:41:00,59.4,54.9,29.97,South,182,0.0,0.0,85,0.00,,,0.00,Wunderground v.1.13,2013-05-01 12:41:00,
2013-05-01 05:46:00,59.4,54.9,29.97,South,182,0.0,0.0,85,0.00,,,0.00,Wunderground v.1.13,2013-05-01 12:46:00,
2013-05-01 05:51:00,59.4,54.9,29.97,South,182,0.0,0.0,85,0.00,,,0.00,Wunderground v.1.13,2013-05-01 12:51:00,
2013-05-01 05:56:00,59.6,55.1,29.97,South,182,0.0,0.0,85,0.00,,,0.00,Wunderground v.1.13,2013-05-01 12:56:00,
2013-05-01 06:01:00,59.5,55.0,29.97,South,182,0.0,0.0,85,0.00,,,0.00,Wunderground v.1.13,2013-05-01 13:01:00,
2013-05-01 06:11:00,59.6,55.1,29.98,South,182,0.0,0.0,85,0.00,,,0.00,Wunderground v.1.13,2013-05-01 13:11:00,
2013-05-01 06:16:00,59.6,55.4,29.98,South,182,0.0,0.0,86,0.00,,,0.00,Wunderground v.1.13,2013-05-01 13:16:00,
2013-05-01 06:21:00,59.6,55.4,29.98,South,182,0.0,0.0,86,0.00,,,0.00,Wunderground v.1.13,2013-05-01 13:21:00,
2013-05-01 06:31:00,59.7,55.5,29.98,South,182,0.0,0.0,86,0.00,,,0.00,Wunderground v.1.13,2013-05-01 13:31:00,
2013-05-01 06:36:00,59.8,55.6,29.99,South,182,0.0,0.0,86,0.00,,,0.00,Wunderground v.1.13,2013-05-01 13:36:00,
2013-05-01 06:41:00,59.9,55.7,29.99,South,182,0.0,0.0,86,0.00,,,0.00,Wunderground v.1.13,2013-05-01 13:41:00,
2013-05-01 06:46:00,59.9,55.7,29.99,South,182,0.0,0.0,86,0.00,,,0.00,Wunderground v.1.13,2013-05-01 13:46:00,
2013-05-01 06:56:00,60.2,56.0,29.99,South,182,0.0,0.0,86,0.00,,,0.00,Wunderground v.1.13,2013-05-01 13:56:00,
2013-05-01 07:01:00,60.3,56.1,30.00,South,182,0.0,0.0,86,0.00,,,0.00,Wunderground v.1.13,2013-05-01 14:01:00,
2013-05-01 07:06:00,60.4,56.2,30.00,South,182,0.0,0.0,86,0.00,,,0.00,Wunderground v.1.13,2013-05-01 14:06:00,
2013-05-01 07:11:00,60.5,56.3,30.00,South,182,0.0,0.0,86,0.00,,,0.00,Wunderground v.1.13,2013-05-01 14:11:00,
2013-05-01 07:21:00,60.7,56.5,30.01,South,182,0.0,0.0,86,0.00,,,0.00,Wunderground v.1.13,2013-05-01 14:21:00,
2013-05-01 07:26:00,60.8,56.6,30.01,South,182,0.0,0.0,86,0.00,,,0.00,Wunderground v.1.13,2013-05-01 14:26:00,
2013-05-01 07:31:00,61.0,56.8,30.01,South,182,0.0,0.0,86,0.00,,,0.00,Wunderground v.1.13,2013-05-01 14:31:00,
2013-05-01 07:36:00,61.1,56.6,30.01,South,182,0.0,0.0,85,0.00,,,0.00,Wunderground v.1.13,2013-05-01 14:36:00,
2013-05-01 07:41:00,61.2,56.7,30.02,South,182,0.0,0.0,85,0.00,,,0.00,Wunderground v.1.13,2013-05-01 14:41:00,
2013-05-01 07:51:00,61.5,56.9,30.02,South,182,0.0,0.0,85,0.00,,,0.00,Wunderground v.1.13,2013-05-01 14:51:00,
2013-05-01 07:56:00,61.7,57.1,30.02,South,182,0.0,0.0,85,0.00,,,0.00,Wunderground v.1.13,2013-05-01 14:56:00,
2013-05-01 08:01:00,61.9,57.0,30.02,South,182,0.0,0.0,84,0.00,,,0.00,Wunderground v.1.13,2013-05-01 15:01:00,
2013-05-01 08:11:00,62.2,57.3,30.02,South,182,0.0,0.0,84,0.00,,,0.00,Wunderground v.1.13,2013-05-01 15:11:00,
2013-05-01 08:16:00,62.5,57.3,30.02,South,182,0.0,0.0,83,0.00,,,0.00,Wunderground v.1.13,2013-05-01 15:16:00,
2013-05-01 08:26:00,62.6,57.0,30.02,South,182,0.0,0.0,82,0.00,,,0.00,Wunderground v.1.13,2013-05-01 15:26:00,
2013-05-01 08:31:00,62.8,57.2,30.03,South,182,0.0,0.0,82,0.00,,,0.00,Wunderground v.1.13,2013-05-01 15:31:00,
2013-05-01 08:41:00,63.0,57.4,30.03,South,177,0.0,0.0,82,0.00,,,0.00,Wunderground v.1.13,2013-05-01 15:41:00,
2013-05-01 08:46:00,63.0,57.4,30.03,SSE,167,0.0,0.0,82,0.00,,,0.00,Wunderground v.1.13,2013-05-01 15:46:00,
2013-05-01 08:51:00,63.1,57.5,30.03,SSE,161,0.0,0.0,82,0.00,,,0.00,Wunderground v.1.13,2013-05-01 15:51:00,
2013-05-01 09:01:00,63.6,57.7,30.04,SSE,161,0.0,0.0,81,0.00,,,0.00,Wunderground v.1.13,2013-05-01 16:01:00,
2013-05-01 09:06:00,63.4,57.5,30.03,SSE,159,0.0,0.0,81,0.00,,,0.00,Wunderground v.1.13,2013-05-01 16:06:00,
2013-05-01 09:11:00,63.7,57.8,30.04,SSE,159,0.0,0.0,81,0.00,,,0.00,Wunderground v.1.13,2013-05-01 16:11:00,
2013-05-01 09:16:00,64.0,58.1,30.04,SSE,161,0.0,0.0,81,0.00,,,0.00,Wunderground v.1.13,2013-05-01 16:16:00,
2013-05-01 09:26:00,64.4,58.1,30.04,WSW,249,0.0,0.0,80,0.00,,,0.00,Wunderground v.1.13,2013-05-01 16:26:00,
2013-05-01 09:31:00,64.5,58.5,30.04,NW,313,0.0,0.0,81,0.00,,,0.00,Wunderground v.1.13,2013-05-01 16:31:00,
2013-05-01 09:36:00,64.4,58.1,30.04,NW,319,0.0,0.0,80,0.00,,,0.00,Wunderground v.1.13,2013-05-01 16:36:00,
2013-05-01 09:41:00,64.7,58.4,30.04,NW,317,0.0,1.0,80,0.00,,,0.00,Wunderground v.1.13,2013-05-01 16:41:00,
2013-05-01 09:46:00,64.6,58.3,30.04,NNE,15,0.0,0.0,80,0.00,,,0.00,Wunderground v.1.13,2013-05-01 16:46:00,
2013-05-01 09:56:00,65.2,58.5,30.04,NNE,13,0.0,0.0,79,0.00,,,0.00,Wunderground v.1.13,2013-05-01 16:56:00,
2013-05-01 10:01:00,65.1,58.4,30.04,North,11,0.0,0.0,79,0.00,,,0.00,Wunderground v.1.13,2013-05-01 17:01:00,
2013-05-01 10:11:00,65.7,59.0,30.04,North,360,1.0,1.0,79,0.00,,,0.00,Wunderground v.1.13,2013-05-01 17:11:00,
2013-05-01 10:16:00,65.4,58.4,30.05,NE,35,1.0,1.0,78,0.00,,,0.00,Wunderground v.1.13,2013-05-01 17:16:00,
2013-05-01 10:21:00,64.8,58.1,30.05,NE,44,1.0,1.0,79,0.00,,,0.00,Wunderground v.1.13,2013-05-01 17:21:00,
2013-05-01 10:26:00,64.8,58.5,30.05,NE,47,1.0,3.0,80,0.00,,,0.00,Wunderground v.1.13,2013-05-01 17:26:00,
2013-05-01 10:36:00,65.1,58.8,30.05,NE,49,2.0,2.0,80,0.00,,,0.00,Wunderground v.1.13,2013-05-01 17:36:00,
2013-05-01 10:41:00,64.9,57.9,30.05,NE,49,2.0,3.0,78,0.00,,,0.00,Wunderground v.1.13,2013-05-01 17:41:00,
2013-05-01 10:46:00,65.9,58.8,30.06,North,360,2.0,4.0,78,0.00,,,0.00,Wunderground v.1.13,2013-05-01 17:46:00,
2013-05-01 10:51:00,65.9,58.8,30.06,NNE,15,1.0,1.0,78,0.00,,,0.00,Wunderground v.1.13,2013-05-01 17:51:00,
2013-05-01 10:56:00,66.5,59.1,30.06,NE,49,1.0,6.0,77,0.00,,,0.00,Wunderground v.1.13,2013-05-01 17:56:00,
2013-05-01 11:06:00,65.8,59.1,30.06,ENE,63,3.0,5.0,79,0.00,,,0.00,Wunderground v.1.13,2013-05-01 18:06:00,
2013-05-01 11:11:00,65.5,58.1,30.06,NE,44,2.0,2.0,77,0.00,,,0.00,Wunderground v.1.13,2013-05-01 18:11:00,
2013-05-01 11:16:00,65.4,58.4,30.06,NE,49,2.0,2.0,78,0.00,,,0.00,Wunderground v.1.13,2013-05-01 18:16:00,
2013-05-01 11:21:00,66.1,58.7,30.07,NNE,30,2.0,2.0,77,0.00,,,0.00,Wunderground v.1.13,2013-05-01 18:21:00,
2013-05-01 11:31:00,67.3,59.5,30.06,ENE,59,2.0,3.0,76,0.00,,,0.00,Wunderground v.1.13,2013-05-01 18:31:00,
2013-05-01 11:36:00,67.2,59.0,30.06,ENE,64,3.0,3.0,75,0.00,,,0.00,Wunderground v.1.13,2013-05-01 18:36:00,
2013-05-01 11:41:00,67.1,58.9,30.06,NE,54,2.0,2.0,75,0.00,,,0.00,Wunderground v.1.13,2013-05-01 18:41:00,
2013-05-01 11:51:00,67.1,58.9,30.06,NE,45,3.0,3.0,75,0.00,,,0.00,Wunderground v.1.13,2013-05-01 18:51:00,
2013-05-01 11:56:00,67.0,58.8,30.06,NNE,28,4.0,4.0,75,0.00,,,0.00,Wunderground v.1.13,2013-05-01 18:56:00,
2013-05-01 12:01:00,66.8,58.6,30.06,NE,48,4.0,4.0,75,0.00,,,0.00,Wunderground v.1.13,2013-05-01 19:01:00,
2013-05-01 12:11:00,67.4,59.2,30.06,East,96,3.0,5.0,75,0.00,,,0.00,Wunderground v.1.13,2013-05-01 19:11:00,
2013-05-01 12:16:00,67.4,59.6,30.06,ENE,76,4.0,6.0,76,0.00,,,0.00,Wunderground v.1.13,2013-05-01 19:16:00,
2013-05-01 12:21:00,67.5,58.5,30.06,East,99,4.0,4.0,73,0.00,,,0.00,Wunderground v.1.13,2013-05-01 19:21:00,
2013-05-01 12:26:00,66.7,57.4,30.06,East,82,4.0,4.0,72,0.00,,,0.00,Wunderground v.1.13,2013-05-01 19:26:00,
2013-05-01 12:31:00,67.9,59.7,30.06,ENE,78,5.0,5.0,75,0.00,,,0.00,Wunderground v.1.13,2013-05-01 19:31:00,
2013-05-01 12:41:00,67.6,58.6,30.06,ENE,76,3.0,4.0,73,0.00,,,0.00,Wunderground v.1.13,2013-05-01 19:41:00,
2013-05-01 12:51:00,67.8,58.4,30.06,NNE,24,2.0,4.0,72,0.00,,,0.00,Wunderground v.1.13,2013-05-01 19:51:00,
2013-05-01 12:56:00,67.9,58.5,30.06,ENE,63,4.0,4.0,72,0.00,,,0.00,Wunderground v.1.13,2013-05-01 19:56:00,
2013-05-01 13:01:00,68.6,58.4,30.06,ENE,62,4.0,5.0,70,0.00,,,0.00,Wunderground v.1.13,2013-05-01 20:01:00,
2013-05-01 13:11:00,67.7,58.0,30.06,NE,55,5.0,5.0,71,0.00,,,0.00,Wunderground v.1.13,2013-05-01 20:11:00,
2013-05-01 13:16:00,68.2,57.6,30.05,East,90,3.0,5.0,69,0.00,,,0.00,Wunderground v.1.13,2013-05-01 20:16:00,
2013-05-01 13:21:00,68.7,58.1,30.06,East,87,2.0,6.0,69,0.00,,,0.00,Wunderground v.1.13,2013-05-01 20:21:00,
2013-05-01 13:31:00,68.4,57.8,30.06,ENE,59,3.0,6.0,69,0.00,,,0.00,Wunderground v.1.13,2013-05-01 20:31:00,
2013-05-01 13:36:00,68.1,57.9,30.05,ENE,69,4.0,4.0,70,0.00,,,0.00,Wunderground v.1.13,2013-05-01 20:36:00,
2013-05-01 13:41:00,67.5,58.2,30.05,NE,52,5.0,5.0,72,0.00,,,0.00,Wunderground v.1.13,2013-05-01 20:41:00,
2013-05-01 13:46:00,68.6,58.4,30.05,ENE,61,4.0,4.0,70,0.00,,,0.00,Wunderground v.1.13,2013-05-01 20:46:00,
2013-05-01 13:56:00,68.3,58.1,30.05,East,86,4.0,4.0,70,0.00,,,0.00,Wunderground v.1.13,2013-05-01 20:56:00,
2013-05-01 14:06:00,68.5,57.9,30.05,ENE,65,4.0,5.0,69,0.00,,,0.00,Wunderground v.1.13,2013-05-01 21:06:00,
2013-05-01 14:11:00,67.7,57.6,30.05,ENE,62,5.0,5.0,70,0.00,,,0.00,Wunderground v.1.13,2013-05-01 21:11:00,
2013-05-01 14:16:00,68.1,57.5,30.05,ENE,67,5.0,6.0,69,0.00,,,0.00,Wunderground v.1.13,2013-05-01 21:16:00,
2013-05-01 14:21:00,67.9,58.5,30.05,ENE,61,5.0,5.0,72,0.00,,,0.00,Wunderground v.1.13,2013-05-01 21:21:00,
2013-05-01 14:26:00,67.8,58.1,30.05,East,88,5.0,5.0,71,0.00,,,0.00,Wunderground v.1.13,2013-05-01 21:26:00,
2013-05-01 14:31:00,67.8,58.1,30.05,East,88,4.0,4.0,71,0.00,,,0.00,Wunderground v.1.13,2013-05-01 21:31:00,
2013-05-01 14:41:00,68.8,58.6,30.05,East,101,5.0,5.0,70,0.00,,,0.00,Wunderground v.1.13,2013-05-01 21:41:00,
2013-05-01 14:46:00,69.1,58.1,30.05,East,98,4.0,5.0,68,0.00,,,0.00,Wunderground v.1.13,2013-05-01 21:46:00,
2013-05-01 14:51:00,69.1,58.1,30.05,ENE,72,4.0,4.0,68,0.00,,,0.00,Wunderground v.1.13,2013-05-01 21:51:00,
2013-05-01 15:01:00,68.5,57.9,30.05,ESE,102,5.0,5.0,69,0.00,,,0.00,Wunderground v.1.13,2013-05-01 22:01:00,
2013-05-01 15:06:00,68.1,57.5,30.05,ESE,118,5.0,5.0,69,0.00,,,0.00,Wunderground v.1.13,2013-05-01 22:06:00,
2013-05-01 15:11:00,68.1,58.7,30.04,ENE,68,6.0,6.0,72,0.00,,,0.00,Wunderground v.1.13,2013-05-01 22:11:00,
2013-05-01 15:21:00,68.4,57.8,30.04,ENE,73,5.0,5.0,69,0.00,,,0.00,Wunderground v.1.13,2013-05-01 22:21:00,
2013-05-01 15:26:00,69.2,58.2,30.04,East,84,5.0,5.0,68,0.00,,,0.00,Wunderground v.1.13,2013-05-01 22:26:00,
2013-05-01 15:36:00,69.5,58.9,30.04,NNE,17,5.0,8.0,69,0.00,,,0.00,Wunderground v.1.13,2013-05-01 22:36:00,
2013-05-01 15:41:00,69.4,58.4,30.04,East,88,4.0,7.0,68,0.00,,,0.00,Wunderground v.1.13,2013-05-01 22:41:00,
2013-05-01 15:46:00,68.8,58.2,30.04,East,89,4.0,4.0,69,0.00,,,0.00,Wunderground v.1.13,2013-05-01 22:46:00,
2013-05-01 15:51:00,68.5,57.9,30.04,NE,48,5.0,8.0,69,0.00,,,0.00,Wunderground v.1.13,2013-05-01 22:51:00,
2013-05-01 16:01:00,68.7,58.5,30.04,East,100,5.0,5.0,70,0.00,,,0.00,Wunderground v.1.13,2013-05-01 23:01:00,
2013-05-01 16:06:00,69.8,57.9,30.04,ENE,57,4.0,5.0,66,0.00,,,0.00,Wunderground v.1.13,2013-05-01 23:06:00,
2013-05-01 16:11:00,69.0,58.0,30.04,East,79,5.0,5.0,68,0.00,,,0.00,Wunderground v.1.13,2013-05-01 23:11:00,
2013-05-01 16:21:00,68.5,57.5,30.03,East,101,6.0,9.0,68,0.00,,,0.00,Wunderground v.1.13,2013-05-01 23:21:00,
2013-05-01 16:26:00,68.4,57.4,30.03,East,101,6.0,6.0,68,0.00,,,0.00,Wunderground v.1.13,2013-05-01 23:26:00,
2013-05-01 16:31:00,68.5,57.9,30.03,East,88,6.0,6.0,69,0.00,,,0.00,Wunderground v.1.13,2013-05-01 23:31:00,
2013-05-01 16:36:00,67.7,58.0,30.03,East,84,7.0,7.0,71,0.00,,,0.00,Wunderground v.1.13,2013-05-01 23:36:00,
2013-05-01 16:46:00,68.2,58.4,30.03,ENE,64,6.0,6.0,71,0.00,,,0.00,Wunderground v.1.13,2013-05-01 23:46:00,
2013-05-01 16:51:00,69.2,58.6,30.03,East,88,5.0,5.0,69,0.00,,,0.00,Wunderground v.1.13,2013-05-01 23:51:00,
2013-05-01 16:56:00,69.0,58.8,30.03,East,101,4.0,5.0,70,0.00,,,0.00,Wunderground v.1.13,2013-05-01 23:56:00,
2013-05-01 17:01:00,67.9,58.1,30.03,East,87,6.0,6.0,71,0.00,,,0.00,Wunderground v.1.13,2013-05-02 00:01:00,
2013-05-01 17:11:00,67.3,59.5,30.03,East,83,7.0,7.0,76,0.00,,,0.00,Wunderground v.1.13,2013-05-02 00:11:00,
2013-05-01 17:16:00,67.1,59.6,30.03,ENE,61,7.0,11.0,77,0.00,,,0.00,Wunderground v.1.13,2013-05-02 00:16:00,
2013-05-01 17:21:00,67.1,60.0,30.03,NE,36,7.0,7.0,78,0.00,,,0.00,Wunderground v.1.13,2013-05-02 00:21:00,
2013-05-01 17:26:00,67.4,59.6,30.03,ENE,76,6.0,6.0,76,0.00,,,0.00,Wunderground v.1.13,2013-05-02 00:26:00,
2013-05-01 17:36:00,66.8,59.4,30.03,ENE,61,6.0,6.0,77,0.00,,,0.00,Wunderground v.1.13,2013-05-02 00:36:00,
2013-05-01 17:41:00,66.7,58.9,30.02,East,91,6.0,9.0,76,0.00,,,0.00,Wunderground v.1.13,2013-05-02 00:41:00,
2013-05-01 17:51:00,66.9,58.3,30.02,East,94,6.0,8.0,74,0.00,,,0.00,Wunderground v.1.13,2013-05-02 00:51:00,
2013-05-01 18:01:00,66.8,58.2,30.02,ENE,72,6.0,10.0,74,0.00,,,0.00,Wunderground v.1.13,2013-05-02 01:01:00,
2013-05-01 18:11:00,66.8,58.2,30.02,East,88,7.0,7.0,74,0.00,,,0.00,Wunderground v.1.13,2013-05-02 01:11:00,
2013-05-01 18:21:00,66.6,58.4,30.02,ENE,67,6.0,8.0,75,0.00,,,0.00,Wunderground v.1.13,2013-05-02 01:21:00,
2013-05-01 18:26:00,66.5,58.3,30.02,East,83,7.0,9.0,75,0.00,,,0.00,Wunderground v.1.13,2013-05-02 01:26:00,
2013-05-01 18:36:00,66.1,58.3,30.02,ENE,57,6.0,6.0,76,0.00,,,0.00,Wunderground v.1.13,2013-05-02 01:36:00,
2013-05-01 18:41:00,66.0,58.6,30.02,East,82,6.0,6.0,77,0.00,,,0.00,Wunderground v.1.13,2013-05-02 01:41:00,
2013-05-01 18:46:00,65.8,58.0,30.02,East,88,6.0,6.0,76,0.00,,,0.00,Wunderground v.1.13,2013-05-02 01:46:00,
2013-05-01 18:51:00,65.6,57.5,30.02,ESE,109,5.0,5.0,75,0.00,,,0.00,Wunderground v.1.13,2013-05-02 01:51:00,
2013-05-01 19:01:00,65.5,57.4,30.02,East,93,5.0,6.0,75,0.00,,,0.00,Wunderground v.1.13,2013-05-02 02:01:00,
2013-05-01 19:06:00,65.2,57.4,30.02,East,84,6.0,6.0,76,0.00,,,0.00,Wunderground v.1.13,2013-05-02 02:06:00,
2013-05-01 19:11:00,64.8,57.1,30.02,ENE,69,6.0,6.0,76,0.00,,,0.00,Wunderground v.1.13,2013-05-02 02:11:00,
2013-05-01 19:21:00,64.5,57.1,30.03,ENE,65,4.0,5.0,77,0.00,,,0.00,Wunderground v.1.13,2013-05-02 02:21:00,
2013-05-01 19:26:00,64.4,57.4,30.03,East,85,4.0,4.0,78,0.00,,,0.00,Wunderground v.1.13,2013-05-02 02:26:00,
2013-05-01 19:31:00,64.1,57.1,30.03,ENE,61,5.0,7.0,78,0.00,,,0.00,Wunderground v.1.13,2013-05-02 02:31:00,
2013-05-01 19:36:00,63.8,56.8,30.03,ENE,74,5.0,6.0,78,0.00,,,0.00,Wunderground v.1.13,2013-05-02 02:36:00,
2013-05-01 19:46:00,63.4,56.8,30.03,ENE,68,4.0,4.0,79,0.00,,,0.00,Wunderground v.1.13,2013-05-02 02:46:00,
2013-05-01 19:51:00,63.1,56.5,30.03,East,89,4.0,4.0,79,0.00,,,0.00,Wunderground v.1.13,2013-05-02 02:51:00,
2013-05-01 19:56:00,62.9,56.3,30.04,ENE,73,4.0,4.0,79,0.00,,,0.00,Wunderground v.1.13,2013-05-02 02:56:00,
2013-05-01 20:01:00,62.7,56.1,30.04,ENE,75,3.0,3.0,79,0.00,,,0.00,Wunderground v.1.13,2013-05-02 03:01:00,
2013-05-01 20:11:00,62.6,56.0,30.04,East,82,3.0,3.0,79,0.00,,,0.00,Wunderground v.1.13,2013-05-02 03:11:00,
2013-05-01 20:16:00,62.6,56.3,30.05,East,87,2.0,6.0,80,0.00,,,0.00,Wunderground v.1.13,2013-05-02 03:16:00,
2013-05-01 20:21:00,62.5,56.2,30.05,East,89,1.0,1.0,80,0.00,,,0.00,Wunderground v.1.13,2013-05-02 03:21:00,
2013-05-01 20:31:00,62.3,56.0,30.05,East,80,2.0,4.0,80,0.00,,,0.00,Wunderground v.1.13,2013-05-02 03:31:00,
2013-05-01 20:41:00,62.2,56.3,30.06,ENE,78,1.0,4.0,81,0.00,,,0.00,Wunderground v.1.13,2013-05-02 03:41:00,
2013-05-01 20:46:00,62.1,56.2,30.06,ENE,76,1.0,2.0,81,0.00,,,0.00,Wunderground v.1.13,2013-05-02 03:46:00,
2013-05-01 20:51:00,62.1,56.2,30.06,ENE,76,2.0,2.0,81,0.00,,,0.00,Wunderground v.1.13,2013-05-02 03:51:00,
2013-05-01 21:01:00,61.9,56.0,30.06,ENE,65,1.0,1.0,81,0.00,,,0.00,Wunderground v.1.13,2013-05-02 04:01:00,
2013-05-01 21:06:00,61.9,56.0,30.06,ENE,67,1.0,1.0,81,0.00,,,0.00,Wunderground v.1.13,2013-05-02 04:06:00,
2013-05-01 21:11:00,61.7,55.8,30.07,ENE,68,1.0,1.0,81,0.00,,,0.00,Wunderground v.1.13,2013-05-02 04:11:00,
2013-05-01 21:16:00,61.7,55.5,30.07,ENE,68,1.0,1.0,80,0.00,,,0.00,Wunderground v.1.13,2013-05-02 04:16:00,
2013-05-01 21:21:00,61.6,55.4,30.07,ENE,68,0.0,0.0,80,0.00,,,0.00,Wunderground v.1.13,2013-05-02 04:21:00,
2013-05-01 21:26:00,61.5,55.3,30.07,ENE,68,0.0,0.0,80,0.00,,,0.00,Wunderground v.1.13,2013-05-02 04:26:00,
2013-05-01 21:31:00,61.5,55.6,30.08,ENE,68,0.0,0.0,81,0.00,,,0.00,Wunderground v.1.13,2013-05-02 04:31:00,
2013-05-01 21:41:00,61.5,55.3,30.08,ENE,68,0.0,0.0,80,0.00,,,0.00,Wunderground v.1.13,2013-05-02 04:41:00,
2013-05-01 21:46:00,61.6,55.4,30.09,ENE,68,0.0,0.0,80,0.00,,,0.00,Wunderground v.1.13,2013-05-02 04:46:00,
2013-05-01 21:51:00,61.5,55.3,30.09,ENE,68,0.0,0.0,80,0.00,,,0.00,Wunderground v.1.13,2013-05-02 04:51:00,
2013-05-01 21:56:00,61.4,55.2,30.09,ENE,68,0.0,0.0,80,0.00,,,0.00,Wunderground v.1.13,2013-05-02 04:56:00,
2013-05-01 22:06:00,61.2,55.7,30.10,ENE,68,0.0,0.0,82,0.00,,,0.00,Wunderground v.1.13,2013-05-02 05:06:00,
2013-05-01 22:11:00,61.4,55.9,30.10,ENE,68,0.0,0.0,82,0.00,,,0.00,Wunderground v.1.13,2013-05-02 05:11:00,
2013-05-01 22:21:00,61.4,56.2,30.11,ENE,68,0.0,0.0,83,0.00,,,0.00,Wunderground v.1.13,2013-05-02 05:21:00,
2013-05-01 22:26:00,61.0,56.1,30.11,ENE,68,0.0,0.0,84,0.00,,,0.00,Wunderground v.1.13,2013-05-02 05:26:00,
2013-05-01 22:31:00,60.6,55.7,30.11,ENE,68,0.0,0.0,84,0.00,,,0.00,Wunderground v.1.13,2013-05-02 05:31:00,
2013-05-01 22:41:00,60.4,55.9,30.11,ENE,68,0.0,0.0,85,0.00,,,0.00,Wunderground v.1.13,2013-05-02 05:41:00,
2013-05-01 22:46:00,60.3,55.8,30.11,ENE,68,0.0,0.0,85,0.00,,,0.00,Wunderground v.1.13,2013-05-02 05:46:00,
2013-05-01 22:51:00,60.2,55.7,30.11,ENE,68,0.0,0.0,85,0.00,,,0.00,Wunderground v.1.13,2013-05-02 05:51:00,
2013-05-01 22:56:00,60.1,55.9,30.11,ENE,68,0.0,0.0,86,0.00,,,0.00,Wunderground v.1.13,2013-05-02 05:56:00,
2013-05-01 23:01:00,60.1,55.9,30.12,NE,45,0.0,0.0,86,0.00,,,0.00,Wunderground v.1.13,2013-05-02 06:01:00,
2013-05-01 23:11:00,60.0,55.8,30.12,North,11,0.0,0.0,86,0.00,,,0.00,Wunderground v.1.13,2013-05-02 06:11:00,
2013-05-01 23:16:00,59.9,55.7,30.12,North,11,0.0,0.0,86,0.00,,,0.00,Wunderground v.1.13,2013-05-02 06:16:00,
2013-05-01 23:21:00,59.8,55.6,30.12,North,355,0.0,2.0,86,0.00,,,0.00,Wunderground v.1.13,2013-05-02 06:21:00,
2013-05-01 23:31:00,59.7,55.5,30.13,NW,312,1.0,4.0,86,0.00,,,0.00,Wunderground v.1.13,2013-05-02 06:31:00,
2013-05-01 23:36:00,59.8,55.6,30.13,WNW,284,2.0,2.0,86,0.00,,,0.00,Wunderground v.1.13,2013-05-02 06:36:00,
2013-05-01 23:41:00,59.7,55.5,30.13,WNW,286,2.0,2.0,86,0.00,,,0.00,Wunderground v.1.13,2013-05-02 06:41:00,
2013-05-01 23:46:00,59.6,55.4,30.13,WNW,286,1.0,1.0,86,0.00,,,0.00,Wunderground v.1.13,2013-05-02 06:46:00,
2013-05-01 23:51:00,59.6,55.4,30.13,WNW,286,0.0,0.0,86,0.00,,,0.00,Wunderground v.1.13,2013-05-02 06:51:00,
2013-05-01 23:56:00,59.4,55.2,30.13,WNW,286,0.0,0.0,86,0.00,,,0.00,Wunderground v.1.13,2013-05-02 06:56:00,